EW6473 Weather Reports


Display with metric or nautical units.
time (UTC)temp
F
wind
direction
speed
MPH
gust
MPH
rain 1hr
in
rain 24hr
in
rain mn
in
humidity
%
barometer
mb
20190723154521 84 0.0 0.0 0.00 0.00 0.00 42 1019.4
20190723153031 83 0.0 0.0 0.00 0.00 0.00 42 1019.2
20190723151519 82 0.0 0.0 0.00 0.00 0.00 45 1019.2
20190723150022 80 0.0 0.0 0.00 0.00 0.00 47 1018.9
20190723144521 78 0.0 0.0 0.00 0.00 0.00 50 1019.1
20190723143021 77 0.0 0.0 0.00 0.00 0.00 52 1019.1
20190723141522 76 0.0 5.0 0.00 0.00 0.00 55 1019.3
20190723140022 76 0.0 4.0 0.00 0.00 0.00 53 1019.1
20190723134522 75 0.0 2.0 0.00 0.00 0.00 54 1019.3
20190723133023 76 0.0 0.0 0.00 0.00 0.00 55 1019.3
20190723131521 77 0.0 2.0 0.00 0.00 0.00 51 1019.2
20190723130021 78 0.0 3.0 0.00 0.00 0.00 47 1018.0
20190723124521 79 0.0 2.0 0.00 0.00 0.00 43 1017.7
20190723123022 77 0.0 3.0 0.00 0.00 0.00 49 1017.7
20190723121526 75 90 2.0 7.0 0.00 0.00 0.00 51 1018.1
20190723120021 74 0.0 3.0 0.00 0.00 0.00 58 1018.2
20190723114521 74 0.0 0.0 0.00 0.00 0.00 55 1018.2
20190723113021 75 0.0 0.0 0.00 0.00 0.00 52 1017.7
20190723111521 74 0.0 0.0 0.00 0.00 0.00 51 1017.6
20190723110021 74 0.0 2.0 0.00 0.00 0.00 54 1017.6
20190723104522 74 0.0 2.0 0.00 0.00 0.00 54 1017.9
20190723103021 74 0.0 0.0 0.00 0.00 0.00 54 1018.0
20190723101520 74 0.0 0.0 0.00 0.00 0.00 54 1018.0
20190723100021 74 0.0 0.0 0.00 0.00 0.00 54 1017.8
20190723094520 74 0.0 0.0 0.00 0.00 0.00 54 1017.8
20190723093020 74 0.0 0.0 0.00 0.00 0.00 53 1017.8
20190723091520 74 0.0 0.0 0.00 0.00 0.00 53 1018.0
20190723090017 75 0.0 0.0 0.00 0.00 0.00 53 1018.4
20190723084518 75 0.0 0.0 0.00 0.00 0.00 52 1018.2
20190723083020 75 0.0 0.0 0.00 0.00 0.00 52 1018.2
20190723081520 75 0.0 0.0 0.00 0.00 0.00 51 1018.1
20190723080020 76 0.0 0.0 0.00 0.00 0.00 50 1018.5
20190723074521 76 0.0 0.0 0.00 0.00 0.00 50 1018.4
20190723073021 76 0.0 0.0 0.00 0.00 0.00 50 1018.4
20190723071520 76 0.0 0.0 0.00 0.00 0.00 49 1018.3
20190723070020 77 0.0 0.0 0.00 0.00 0.00 49 1018.5
20190723064520 77 0.0 1.0 0.00 0.00 0.00 49 1018.5
20190723063019 76 0.0 0.0 0.00 0.00 0.00 49 1018.2
20190723061519 76 0.0 0.0 0.00 0.00 0.00 49 1017.9
20190723060025 77 0.0 0.0 0.00 0.00 0.00 49 1017.7
20190723054520 77 0.0 1.0 0.00 0.00 0.00 48 1017.8
20190723053020 77 0.0 1.0 0.00 0.00 0.00 47 1017.6
20190723051521 77 0.0 2.0 0.00 0.00 0.00 46 1017.7
20190723050022 78 0.0 0.0 0.00 0.00 0.00 45 1018.0
20190723044521 79 0.0 0.0 0.00 0.00 0.00 43 1018.1
20190723043021 80 0.0 0.0 0.00 0.00 0.00 42 1018.1
20190723041521 80 0.0 0.0 0.00 0.00 0.00 41 1017.8
20190723040021 81 0.0 0.0 0.00 0.00 0.00 41 1017.8
20190723034521 82 0.0 0.0 0.00 0.00 0.00 40 1017.8
20190723033022 83 0.0 0.0 0.00 0.00 0.00 39 1017.8
20190723031521 84 0.0 0.0 0.00 0.00 0.00 38 1017.7
20190723030021 85 0.0 2.0 0.00 0.00 0.00 37 1017.4
20190723024526 86 0.0 3.0 0.00 0.00 0.00 36 1017.1
20190723023021 86 0.0 2.0 0.00 0.00 0.00 35 1016.9
20190723021521 88 0.0 6.0 0.00 0.00 0.00 34 1016.9
20190723020021 88 0.0 5.0 0.00 0.00 0.00 33 1017.3
20190723014521 89 0.0 5.0 0.00 0.00 0.00 33 1017.3
20190723013022 90 0.0 7.0 0.00 0.00 0.00 31 1016.9
20190723011521 90 248 1.0 10.0 0.00 0.00 0.00 28 1016.6
20190723010021 92 248 1.0 7.0 0.00 0.00 0.00 28 1016.9
20190723004517 93 248 1.0 7.0 0.00 0.00 0.00 26 1017.0
20190723003018 95 315 2.0 8.0 0.00 0.00 0.00 25 1017.0
20190723001518 96 225 1.0 10.0 0.00 0.00 0.00 23 1016.7
20190723000026 96 225 1.0 7.0 0.00 0.00 0.00 24 1016.5
20190722234521 97 338 1.0 7.0 0.00 0.00 0.00 23 1016.6
20190722233022 96 338 1.0 5.0 0.00 0.00 0.00 25 1016.7
20190722231521 94 338 3.0 12.0 0.00 0.00 0.00 26 1016.7
20190722230020 95 0.0 5.0 0.00 0.00 0.00 25 1016.7
20190722224524 95 225 2.0 7.0 0.00 0.00 0.00 26 1016.9
20190722223020 95 338 1.0 10.0 0.00 0.00 0.00 26 1016.9
20190722221522 95 338 1.0 8.0 0.00 0.00 0.00 26 1016.9
20190722220021 94 338 2.0 11.0 0.00 0.00 0.00 26 1016.8
20190722214521 93 338 2.0 8.0 0.00 0.00 0.00 25 1017.1
20190722213020 93 338 2.0 11.0 0.00 0.00 0.00 26 1017.3
20190722211521 93 338 2.0 10.0 0.00 0.00 0.00 27 1017.4
20190722210020 92 338 1.0 7.0 0.00 0.00 0.00 27 1017.5
20190722204521 91 338 1.0 10.0 0.00 0.00 0.00 28 1017.6
20190722203020 90 293 1.0 6.0 0.00 0.00 0.00 27 1017.4
20190722201526 88 225 1.0 6.0 0.00 0.00 0.00 29 1017.8
20190722200021 87 225 1.0 6.0 0.00 0.00 0.00 31 1018.0
20190722194520 86 0.0 5.0 0.00 0.00 0.00 34 1018.1
20190722193022 85 0.0 6.0 0.00 0.00 0.00 34 1018.6
20190722191521 84 0.0 2.0 0.00 0.00 0.00 37 1018.7
20190722190020 84 0.0 1.0 0.00 0.00 0.00 37 1018.5
20190722184520 84 0.0 0.0 0.00 0.00 0.00 38 1018.6
20190722183021 83 0.0 0.0 0.00 0.00 0.00 38 1018.7
20190722181521 82 0.0 0.0 0.00 0.00 0.00 39 1018.7
20190722180025 82 0.0 0.0 0.00 0.00 0.00 39 1018.5
20190722174521 81 0.0 1.0 0.00 0.00 0.00 38 1018.5
20190722173025 81 0.0 1.0 0.00 0.00 0.00 41 1018.3
20190722171519 80 0.0 1.0 0.00 0.00 0.00 41 1018.2
20190722170021 80 0.0 3.0 0.00 0.00 0.00 41 1018.2
20190722164519 81 0.0 4.0 0.00 0.00 0.00 40 1018.2
20190722163025 82 248 1.0 6.0 0.00 0.00 0.00 37 1018.1
20190722161520 82 0.0 5.0 0.00 0.00 0.00 35 1017.9
20190722160020 79 0.0 0.0 0.00 0.00 0.00 35 1017.7